KTIK/TIK METAR and TAF weather

Enter ICAO airport designator
Station Type Date Time Source
KTIK METAR 2020/04/05 14:56 UTC NOAA

KTIK 051456Z 10003KT 10SM FEW008 BKN044 06/04 A3010 RMK AO2A SLP206 T00630043 52009 $


Station Type Date Time Source
KTIK Decoded METAR 2020/04/05 14:56 UTC NOAA

Tinker Air Force Base, OK, United States (KTIK) 35-25N 097-23W 397M
Apr 05, 2020 - 10:56 AM EDT / 2020.04.05 1456 UTC
Wind: from the E (100 degrees) at 3 MPH (3 KT):0
Visibility: 10 mile(s):0
Sky conditions: mostly cloudy
Temperature: 43.3 F (6.3 C)
Dew Point: 39.7 F (4.3 C)
Relative Humidity: 87%
Pressure (altimeter): 30.1 in. Hg (1019 hPa)
Pressure tendency: 0.03 inches (0.9 hPa) higher than three hours ago
ob: KTIK 051456Z 10003KT 10SM FEW008 BKN044 06/04 A3010 RMK AO2A SLP206 T00630043 52009
cycle: 15

Station Type Date Time Source
KTIK TAF 2020/04/05 13:57 UTC NOAA

TAF
AMD KTIK 051350Z 0513/0615 VRB06KT 9999 OVC030 QNH2999INS
BECMG 0517/0518 16009KT 9999 BKN030 QNH2999INS
BECMG 0604/0605 17009KT 8000 BR OVC005 510052 QNH2999INS TX16/0522Z TN05/0513Z

Example: see airport list